createdAt,value
2023-05-05T00:01:37.477Z,37.24
2023-05-05T00:04:08.130Z,37.30
2023-05-05T00:06:38.737Z,37.37
2023-05-05T00:09:09.262Z,37.64
2023-05-05T00:11:39.705Z,37.55
2023-05-05T00:14:11.190Z,37.48
2023-05-05T00:16:41.699Z,37.44
2023-05-05T00:19:12.223Z,37.54
2023-05-05T00:21:42.664Z,37.53
2023-05-05T00:24:13.087Z,37.47
2023-05-05T00:26:43.529Z,37.49
2023-05-05T00:29:14.012Z,37.60
2023-05-05T00:31:44.469Z,37.72
2023-05-05T00:34:14.921Z,37.89
2023-05-05T00:36:45.412Z,37.86
2023-05-05T00:39:15.953Z,37.92
2023-05-05T00:41:46.412Z,37.84
2023-05-05T00:44:16.877Z,37.94
2023-05-05T00:46:47.573Z,37.96
2023-05-05T00:49:18.172Z,37.88
2023-05-05T00:51:48.672Z,37.95
2023-05-05T00:54:19.170Z,37.98
2023-05-05T00:56:51.146Z,38.01
2023-05-05T00:59:22.050Z,38.03
2023-05-05T01:01:52.513Z,38.00
2023-05-05T01:04:23.100Z,38.10
2023-05-05T01:07:04.977Z,38.17
2023-05-05T01:09:48.201Z,38.03
2023-05-05T01:12:28.253Z,38.23
2023-05-05T01:15:12.292Z,38.31
2023-05-05T01:17:49.000Z,38.38
2023-05-05T01:20:26.388Z,38.45
2023-05-05T01:23:03.930Z,38.55
2023-05-05T01:26:04.087Z,38.55
2023-05-05T01:28:49.858Z,38.74
2023-05-05T01:31:33.666Z,38.79
2023-05-05T01:34:08.558Z,38.85
2023-05-05T01:36:42.958Z,38.73
2023-05-05T01:39:17.425Z,38.83
2023-05-05T01:41:50.548Z,39.17
2023-05-05T01:44:21.784Z,39.25
2023-05-05T01:46:55.630Z,39.18
2023-05-05T01:49:27.655Z,38.95
2023-05-05T01:51:59.640Z,39.06
2023-05-05T01:54:33.241Z,39.19
2023-05-05T01:57:06.551Z,39.17
2023-05-05T01:59:39.930Z,39.20
2023-05-05T02:02:12.284Z,39.13
2023-05-05T02:04:45.388Z,39.18
2023-05-05T02:07:18.013Z,39.28
2023-05-05T02:09:49.318Z,39.42
2023-05-05T02:12:21.976Z,39.29
2023-05-05T02:14:54.359Z,39.44
2023-05-05T02:17:26.606Z,39.47
2023-05-05T02:19:59.991Z,39.50
2023-05-05T02:22:31.674Z,39.50
2023-05-05T02:25:00.969Z,39.53
2023-05-05T02:27:34.970Z,39.65
2023-05-05T02:30:09.774Z,39.77
2023-05-05T02:32:45.904Z,39.77
2023-05-05T02:35:20.996Z,39.92
2023-05-05T02:38:00.129Z,40.00
2023-05-05T02:40:34.273Z,39.97
2023-05-05T02:43:08.455Z,40.13
2023-05-05T02:45:39.346Z,40.16
2023-05-05T02:48:13.070Z,40.26
2023-05-05T02:50:43.984Z,40.39
2023-05-05T02:53:27.914Z,40.37
2023-05-05T02:56:06.990Z,40.48
2023-05-05T02:58:47.303Z,40.56
2023-05-05T03:01:41.505Z,40.61
2023-05-05T03:04:16.724Z,40.79
2023-05-05T03:06:54.977Z,40.92
2023-05-05T03:09:31.186Z,40.95
2023-05-05T03:12:05.608Z,41.07
2023-05-05T03:14:44.232Z,41.18
2023-05-05T03:17:18.604Z,41.26
2023-05-05T03:19:50.417Z,41.31
2023-05-05T03:22:21.260Z,41.43
2023-05-05T03:24:53.711Z,41.42
2023-05-05T03:27:26.869Z,41.56
2023-05-05T03:29:57.670Z,41.73
2023-05-05T03:32:30.776Z,41.88
2023-05-05T03:35:01.415Z,41.88
2023-05-05T03:37:34.856Z,41.92
2023-05-05T03:40:06.445Z,42.10
2023-05-05T03:42:37.241Z,42.24
2023-05-05T03:45:09.260Z,42.39
2023-05-05T03:47:40.264Z,42.47
2023-05-05T03:50:12.250Z,42.71
2023-05-05T03:52:43.105Z,42.60
2023-05-05T03:55:13.834Z,42.64
2023-05-05T03:57:46.019Z,42.66
2023-05-05T04:00:17.855Z,42.88
2023-05-05T04:02:49.850Z,42.86
2023-05-05T04:05:19.951Z,42.78
2023-05-05T04:07:50.811Z,43.05
2023-05-05T04:10:21.502Z,43.10
2023-05-05T04:12:52.261Z,43.16
2023-05-05T04:15:22.767Z,43.12
2023-05-05T04:17:53.453Z,43.20
2023-05-05T04:20:24.216Z,43.25
2023-05-05T04:22:54.673Z,43.31
2023-05-05T04:25:25.567Z,43.38
2023-05-05T04:27:56.443Z,43.54
2023-05-05T04:30:27.312Z,43.50
2023-05-05T04:32:57.822Z,43.58
2023-05-05T04:35:28.556Z,43.72
2023-05-05T04:37:59.200Z,43.85
2023-05-05T04:40:30.003Z,43.89
2023-05-05T04:43:00.949Z,43.86
2023-05-05T04:45:32.473Z,44.09
2023-05-05T04:48:04.406Z,44.15
2023-05-05T04:50:33.369Z,44.20
2023-05-05T04:53:03.857Z,44.24
2023-05-05T04:55:35.320Z,44.53
2023-05-05T04:58:05.879Z,44.53
2023-05-05T05:00:38.190Z,44.67
2023-05-05T05:03:10.057Z,44.89
2023-05-05T05:05:39.070Z,44.91
2023-05-05T05:08:09.981Z,45.12
2023-05-05T05:10:40.474Z,44.70
2023-05-05T05:13:12.674Z,44.61
2023-05-05T05:15:44.341Z,44.50
2023-05-05T05:18:15.483Z,44.62
2023-05-05T05:20:46.477Z,44.43
2023-05-05T05:23:17.845Z,44.70
2023-05-05T05:25:48.878Z,44.59
2023-05-05T05:28:19.894Z,44.65
2023-05-05T05:30:53.828Z,44.61
2023-05-05T05:33:24.470Z,44.67
2023-05-05T05:35:55.156Z,44.62
2023-05-05T05:38:25.945Z,44.52
2023-05-05T05:40:58.238Z,44.83
2023-05-05T05:43:29.755Z,44.88
2023-05-05T05:46:00.337Z,45.03
2023-05-05T05:48:31.493Z,44.87
2023-05-05T05:51:02.580Z,44.90
2023-05-05T05:53:33.346Z,44.88
2023-05-05T05:56:04.263Z,45.07
2023-05-05T05:58:38.197Z,45.16
2023-05-05T06:01:08.930Z,45.01
2023-05-05T06:03:39.615Z,44.78
2023-05-05T06:06:10.591Z,44.55
2023-05-05T06:08:41.225Z,44.56
2023-05-05T06:11:11.799Z,44.55
2023-05-05T06:13:42.354Z,44.58
2023-05-05T06:16:12.952Z,44.37
2023-05-05T06:18:44.194Z,44.36
2023-05-05T06:21:14.732Z,44.30
2023-05-05T06:23:45.209Z,44.42
2023-05-05T06:26:15.859Z,44.21
2023-05-05T06:28:46.358Z,44.24
2023-05-05T06:31:17.600Z,44.31
2023-05-05T06:33:48.065Z,44.43
2023-05-05T06:36:18.652Z,44.64
2023-05-05T06:38:50.314Z,44.58
2023-05-05T06:41:21.353Z,44.53
2023-05-05T06:43:51.952Z,44.36
2023-05-05T06:46:22.416Z,44.47
2023-05-05T06:48:52.999Z,44.59
2023-05-05T06:51:23.867Z,44.59
2023-05-05T06:53:54.339Z,44.58
2023-05-05T06:56:25.032Z,44.43
2023-05-05T06:58:55.507Z,44.43
2023-05-05T07:01:26.295Z,44.68
2023-05-05T07:03:57.163Z,44.61
2023-05-05T07:06:27.769Z,44.61
2023-05-05T07:08:58.264Z,44.65
2023-05-05T07:11:28.687Z,44.61
2023-05-05T07:13:59.174Z,44.48
2023-05-05T07:16:29.754Z,44.19
2023-05-05T07:19:00.930Z,44.26
2023-05-05T07:21:31.673Z,44.20
2023-05-05T07:24:03.113Z,44.16
2023-05-05T07:26:33.829Z,44.06
2023-05-05T07:29:07.152Z,43.97
2023-05-05T07:31:37.632Z,43.83
2023-05-05T07:34:08.127Z,43.91
2023-05-05T07:36:38.611Z,44.01
2023-05-05T07:39:09.159Z,43.82
2023-05-05T07:41:39.766Z,43.75
2023-05-05T07:44:11.463Z,43.57
2023-05-05T07:46:41.934Z,43.42
2023-05-05T07:49:12.392Z,43.39
2023-05-05T07:51:43.118Z,43.26
2023-05-05T07:54:13.833Z,43.29
2023-05-05T07:56:44.607Z,43.45
2023-05-05T07:59:15.153Z,43.36
2023-05-05T08:01:45.569Z,43.10
2023-05-05T08:04:16.084Z,43.18
2023-05-05T08:06:46.650Z,43.04
2023-05-05T08:09:17.112Z,43.00
2023-05-05T08:11:47.560Z,42.83
2023-05-05T08:14:18.090Z,43.00
2023-05-05T08:16:48.539Z,42.75
2023-05-05T08:19:28.782Z,42.31
2023-05-05T08:22:01.584Z,42.08
2023-05-05T08:24:32.188Z,42.00
2023-05-05T08:27:02.691Z,42.02
2023-05-05T08:29:33.138Z,42.44
2023-05-05T08:32:03.570Z,42.37
2023-05-05T08:34:34.025Z,42.33
2023-05-05T08:37:04.469Z,42.93
2023-05-05T08:39:34.924Z,42.90
2023-05-05T08:42:05.852Z,42.75
2023-05-05T08:44:36.295Z,41.98
2023-05-05T08:47:10.197Z,41.64
2023-05-05T08:49:47.973Z,41.44
2023-05-05T08:52:23.733Z,41.47
2023-05-05T08:55:00.902Z,41.54
2023-05-05T08:57:39.500Z,41.59
2023-05-05T09:00:13.751Z,42.39
2023-05-05T09:02:46.659Z,43.54
2023-05-05T09:05:18.016Z,43.66
2023-05-05T09:07:48.982Z,43.18
2023-05-05T09:10:20.219Z,42.94
2023-05-05T09:12:51.581Z,42.18
2023-05-05T09:15:22.235Z,41.55
2023-05-05T09:17:52.865Z,41.38
2023-05-05T09:20:24.375Z,40.79
2023-05-05T09:22:54.806Z,40.06
2023-05-05T09:25:25.236Z,39.99
2023-05-05T09:27:56.042Z,38.85
2023-05-05T09:30:27.945Z,38.45
2023-05-05T09:32:58.445Z,38.35
2023-05-05T09:35:30.356Z,38.18
2023-05-05T09:38:11.653Z,37.93
2023-05-05T09:40:49.009Z,37.80
2023-05-05T09:43:20.826Z,37.57
2023-05-05T09:45:50.336Z,37.48
2023-05-05T09:48:29.003Z,37.14
2023-05-05T09:51:00.190Z,37.14
2023-05-05T09:53:41.849Z,36.86
2023-05-05T09:56:12.310Z,36.98
2023-05-05T09:58:43.202Z,37.03
2023-05-05T10:01:24.529Z,37.07
2023-05-05T10:03:55.024Z,37.04
2023-05-05T10:06:42.698Z,37.24
2023-05-05T10:09:13.144Z,37.01
2023-05-05T10:11:46.191Z,36.59
2023-05-05T10:14:18.758Z,36.74
2023-05-05T10:16:52.212Z,36.83
2023-05-05T10:19:24.251Z,36.98
2023-05-05T10:22:00.508Z,36.66
2023-05-05T10:24:39.799Z,36.82
2023-05-05T10:27:16.661Z,36.81
2023-05-05T10:29:53.426Z,36.60
2023-05-05T10:32:54.381Z,36.70
2023-05-05T10:35:27.293Z,36.50
2023-05-05T10:37:59.398Z,36.38
2023-05-05T10:40:30.106Z,36.44
2023-05-05T10:43:01.034Z,36.65
2023-05-05T10:45:32.275Z,37.12
2023-05-05T10:48:09.947Z,37.37
2023-05-05T10:50:47.718Z,37.65
2023-05-05T10:53:24.475Z,37.59
2023-05-05T10:56:01.384Z,37.08
2023-05-05T10:58:55.626Z,36.73
2023-05-05T11:01:34.507Z,36.98
2023-05-05T11:04:22.686Z,36.77
2023-05-05T11:07:27.797Z,36.20
2023-05-05T11:10:01.414Z,36.25
2023-05-05T11:12:33.210Z,36.22
2023-05-05T11:15:19.717Z,36.00
2023-05-05T11:17:50.335Z,36.37
2023-05-05T11:20:40.840Z,36.25
2023-05-05T11:23:25.358Z,36.10
2023-05-05T11:25:57.680Z,36.25
2023-05-05T11:28:31.150Z,35.90
2023-05-05T11:31:20.948Z,35.36
2023-05-05T11:33:51.517Z,34.71
2023-05-05T11:36:38.240Z,35.14
2023-05-05T11:39:20.991Z,35.06
2023-05-05T11:42:17.610Z,34.90
2023-05-05T11:44:48.482Z,34.72
2023-05-05T11:47:32.741Z,34.43
2023-05-05T11:50:19.020Z,34.35
2023-05-05T11:52:49.948Z,34.44
2023-05-05T11:55:24.130Z,34.38
2023-05-05T11:57:54.625Z,33.98
2023-05-05T12:00:34.800Z,33.81
2023-05-05T12:03:06.490Z,33.66
2023-05-05T12:05:37.272Z,33.66
2023-05-05T12:08:07.884Z,33.55
2023-05-05T12:10:38.389Z,33.09
2023-05-05T12:13:20.563Z,32.94
2023-05-05T12:15:51.339Z,33.12
2023-05-05T12:18:22.452Z,32.85
2023-05-05T12:20:52.968Z,32.32
2023-05-05T12:23:23.833Z,32.27
2023-05-05T12:25:54.277Z,32.09
2023-05-05T12:28:24.699Z,31.94
2023-05-05T12:31:01.625Z,31.97
2023-05-05T12:33:39.540Z,32.35
2023-05-05T12:36:10.855Z,32.53
2023-05-05T12:38:41.957Z,32.46
2023-05-05T12:41:18.579Z,31.68
2023-05-05T12:43:49.015Z,31.63
2023-05-05T12:46:19.502Z,32.07
2023-05-05T12:49:04.781Z,31.61
2023-05-05T12:51:36.505Z,31.33
2023-05-05T12:54:06.300Z,31.28
2023-05-05T12:56:41.734Z,31.06
2023-05-05T12:59:13.512Z,31.13
2023-05-05T13:01:53.608Z,31.08
2023-05-05T13:04:25.815Z,31.47
2023-05-05T13:07:13.579Z,31.56
2023-05-05T13:09:44.714Z,31.32
2023-05-05T13:12:15.272Z,31.33
2023-05-05T13:14:46.837Z,30.61
2023-05-05T13:17:15.898Z,30.05
2023-05-05T13:19:47.139Z,30.27
2023-05-05T13:22:18.014Z,30.19
2023-05-05T13:24:52.146Z,29.96
2023-05-05T13:27:23.769Z,29.81
2023-05-05T13:29:54.243Z,29.76
2023-05-05T13:32:24.724Z,29.54
2023-05-05T13:34:55.285Z,29.29
2023-05-05T13:37:25.750Z,29.47
2023-05-05T13:39:59.417Z,29.97
2023-05-05T13:42:29.935Z,30.16
2023-05-05T13:45:00.381Z,29.50
2023-05-05T13:47:30.817Z,29.43
2023-05-05T13:50:02.084Z,28.73
2023-05-05T13:52:33.428Z,28.56
2023-05-05T13:55:04.207Z,28.41
2023-05-05T13:57:34.671Z,28.47
2023-05-05T14:00:05.866Z,28.42
2023-05-05T14:02:38.160Z,27.93
2023-05-05T14:05:10.852Z,27.84
2023-05-05T14:07:41.729Z,27.66
2023-05-05T14:10:12.758Z,27.15
2023-05-05T14:12:43.622Z,26.69
2023-05-05T14:15:14.273Z,26.91
2023-05-05T14:17:44.785Z,26.87
2023-05-05T14:20:15.938Z,27.07
2023-05-05T14:22:48.743Z,27.20
2023-05-05T14:25:20.026Z,27.22
2023-05-05T14:27:50.892Z,26.94
2023-05-05T14:30:21.329Z,26.70
2023-05-05T14:32:51.779Z,26.66
2023-05-05T14:35:22.468Z,26.20
2023-05-05T14:37:52.919Z,26.24
2023-05-05T14:40:23.624Z,26.70
2023-05-05T14:42:54.054Z,26.51
2023-05-05T14:45:24.530Z,25.67
2023-05-05T14:47:55.103Z,25.69
2023-05-05T14:50:25.796Z,26.24
2023-05-05T14:52:56.344Z,26.46
2023-05-05T14:55:27.033Z,26.04
2023-05-05T14:57:57.469Z,25.96
2023-05-05T15:00:28.589Z,26.17
2023-05-05T15:02:59.126Z,26.52
2023-05-05T15:05:29.716Z,26.02
2023-05-05T15:08:00.158Z,25.78
2023-05-05T15:10:30.668Z,25.61
2023-05-05T15:13:01.187Z,25.17
2023-05-05T15:15:31.664Z,25.17
2023-05-05T15:18:02.203Z,25.24
2023-05-05T15:20:32.779Z,25.58
2023-05-05T15:23:04.205Z,25.71
2023-05-05T15:25:33.154Z,25.59
2023-05-05T15:28:03.639Z,25.59
2023-05-05T15:30:34.462Z,25.65
2023-05-05T15:33:05.011Z,25.86
2023-05-05T15:35:36.246Z,25.62
2023-05-05T15:38:06.789Z,26.07
2023-05-05T15:40:37.259Z,26.21
2023-05-05T15:43:08.126Z,26.00
2023-05-05T15:45:41.209Z,26.08
2023-05-05T15:48:11.741Z,26.06
2023-05-05T15:50:42.294Z,26.21
2023-05-05T15:53:12.761Z,26.38
2023-05-05T15:55:43.192Z,26.27
2023-05-05T15:58:13.675Z,26.45
2023-05-05T16:00:44.146Z,26.57
2023-05-05T16:03:14.784Z,26.74
2023-05-05T16:05:45.414Z,26.96
2023-05-05T16:08:15.903Z,26.88
2023-05-05T16:10:46.332Z,26.91
2023-05-05T16:13:16.848Z,27.27
2023-05-05T16:15:47.371Z,27.53
2023-05-05T16:18:17.869Z,27.60
2023-05-05T16:20:48.364Z,27.68
2023-05-05T16:23:18.856Z,27.74
2023-05-05T16:25:49.303Z,27.71
2023-05-05T16:28:19.832Z,27.82
2023-05-05T16:30:50.259Z,28.18
2023-05-05T16:33:20.761Z,27.93
2023-05-05T16:35:51.183Z,28.27
2023-05-05T16:38:21.693Z,28.07
2023-05-05T16:40:52.207Z,28.08
2023-05-05T16:43:22.856Z,28.11
2023-05-05T16:45:53.376Z,28.14
2023-05-05T16:48:23.894Z,28.46
2023-05-05T16:50:56.479Z,28.46
2023-05-05T16:53:27.335Z,28.18
2023-05-05T16:55:57.912Z,28.02
2023-05-05T16:58:28.611Z,28.27
2023-05-05T17:01:01.843Z,28.27
2023-05-05T17:03:32.346Z,28.35
2023-05-05T17:06:03.312Z,28.00
2023-05-05T17:08:33.808Z,28.09
2023-05-05T17:11:04.302Z,28.10
2023-05-05T17:13:34.778Z,28.03
2023-05-05T17:16:05.732Z,28.03
2023-05-05T17:18:37.171Z,28.19
2023-05-05T17:21:08.351Z,28.44
2023-05-05T17:23:38.805Z,28.74
2023-05-05T17:26:09.363Z,28.91
2023-05-05T17:28:39.835Z,29.09
2023-05-05T17:31:10.822Z,29.10
2023-05-05T17:33:41.327Z,28.94
2023-05-05T17:36:12.421Z,29.09
2023-05-05T17:38:42.860Z,29.15
2023-05-05T17:41:13.370Z,28.90
2023-05-05T17:43:43.902Z,28.82
2023-05-05T17:46:14.471Z,28.87
2023-05-05T17:48:45.108Z,28.87
2023-05-05T17:51:15.614Z,29.08
2023-05-05T17:53:46.188Z,29.16
2023-05-05T17:56:16.666Z,28.80
2023-05-05T17:58:48.221Z,28.73
2023-05-05T18:01:25.513Z,28.81
2023-05-05T18:03:56.110Z,28.80
2023-05-05T18:06:27.015Z,28.86
2023-05-05T18:08:57.570Z,28.75
2023-05-05T18:11:31.014Z,28.89
2023-05-05T18:14:01.593Z,29.00
2023-05-05T18:16:32.075Z,29.16
2023-05-05T18:19:02.502Z,29.23
2023-05-05T18:21:33.194Z,29.27
2023-05-05T18:24:15.853Z,29.51
2023-05-05T18:26:52.483Z,29.81
2023-05-05T18:29:24.283Z,30.29
2023-05-05T18:31:55.190Z,30.76
2023-05-05T18:34:26.357Z,31.18
2023-05-05T18:36:57.199Z,31.66
2023-05-05T18:39:28.206Z,32.01
2023-05-05T18:41:58.654Z,32.40
2023-05-05T18:44:29.160Z,32.69
2023-05-05T18:46:59.912Z,32.94
2023-05-05T18:49:31.564Z,33.31
2023-05-05T18:52:02.283Z,33.54
2023-05-05T18:54:32.804Z,33.80
2023-05-05T18:57:03.687Z,33.97
2023-05-05T18:59:34.137Z,34.12
2023-05-05T19:02:04.568Z,34.34
2023-05-05T19:04:37.508Z,34.53
2023-05-05T19:07:08.423Z,34.56
2023-05-05T19:09:38.871Z,34.78
2023-05-05T19:12:09.759Z,34.88
2023-05-05T19:14:40.237Z,34.97
2023-05-05T19:17:10.677Z,35.13
2023-05-05T19:19:41.171Z,35.24
2023-05-05T19:22:11.617Z,35.50
2023-05-05T19:24:42.132Z,35.68
2023-05-05T19:27:16.404Z,35.68
2023-05-05T19:29:52.050Z,35.71
2023-05-05T19:32:23.348Z,35.88
2023-05-05T19:34:54.605Z,35.92
2023-05-05T19:37:25.093Z,36.06
2023-05-05T19:39:56.572Z,36.13
2023-05-05T19:42:27.542Z,36.26
2023-05-05T19:44:58.268Z,36.39
2023-05-05T19:47:28.866Z,36.46
2023-05-05T19:49:59.660Z,36.61
2023-05-05T19:52:30.182Z,36.59
2023-05-05T19:55:00.718Z,36.73
2023-05-05T19:57:31.240Z,36.85
2023-05-05T20:00:02.117Z,36.90
2023-05-05T20:02:36.740Z,36.97
2023-05-05T20:05:09.007Z,37.13
2023-05-05T20:07:39.509Z,37.14
2023-05-05T20:10:14.186Z,37.28
2023-05-05T20:12:48.251Z,37.39
2023-05-05T20:15:20.352Z,37.44
2023-05-05T20:17:51.091Z,37.53
2023-05-05T20:20:24.015Z,37.61
2023-05-05T20:22:54.514Z,37.63
2023-05-05T20:25:25.091Z,37.74
2023-05-05T20:27:55.593Z,37.83
2023-05-05T20:30:26.876Z,37.88
2023-05-05T20:32:58.087Z,37.91
2023-05-05T20:35:28.712Z,37.94
2023-05-05T20:37:59.132Z,38.02
2023-05-05T20:40:30.313Z,38.05
2023-05-05T20:43:00.842Z,38.12
2023-05-05T20:45:31.868Z,38.20
2023-05-05T20:48:02.383Z,38.24
2023-05-05T20:50:33.169Z,38.32
2023-05-05T20:53:03.630Z,38.33
2023-05-05T20:55:34.134Z,38.43
2023-05-05T20:58:05.419Z,38.55
2023-05-05T21:00:36.261Z,38.49
2023-05-05T21:03:06.853Z,38.57
2023-05-05T21:05:37.457Z,38.58
2023-05-05T21:08:08.718Z,38.71
2023-05-05T21:10:40.133Z,38.78
2023-05-05T21:13:10.751Z,39.00
2023-05-05T21:15:41.440Z,39.10
2023-05-05T21:18:11.895Z,39.04
2023-05-05T21:20:42.513Z,39.35
2023-05-05T21:23:13.041Z,39.33
2023-05-05T21:25:43.483Z,39.33
2023-05-05T21:28:13.953Z,39.33
2023-05-05T21:30:46.625Z,39.46
2023-05-05T21:33:18.850Z,39.68
2023-05-05T21:35:49.326Z,39.66
2023-05-05T21:38:19.772Z,39.59
2023-05-05T21:40:50.391Z,39.76
2023-05-05T21:43:20.952Z,39.78
2023-05-05T21:45:58.647Z,39.87
2023-05-05T21:48:29.199Z,39.99
2023-05-05T21:50:59.819Z,39.81
2023-05-05T21:53:30.921Z,39.98
2023-05-05T21:56:01.447Z,39.99
2023-05-05T21:58:31.934Z,40.09
2023-05-05T22:01:02.589Z,40.12
2023-05-05T22:03:34.551Z,40.15
2023-05-05T22:06:05.437Z,40.22
2023-05-05T22:08:35.965Z,40.20
2023-05-05T22:11:06.821Z,40.35
2023-05-05T22:13:39.062Z,40.25
2023-05-05T22:16:10.818Z,40.43
2023-05-05T22:18:39.777Z,40.57
2023-05-05T22:21:10.361Z,40.65
2023-05-05T22:23:41.938Z,40.57
2023-05-05T22:26:11.143Z,40.68
2023-05-05T22:28:41.624Z,40.88
2023-05-05T22:31:12.192Z,40.85
2023-05-05T22:33:42.646Z,40.97
2023-05-05T22:36:13.221Z,41.00
2023-05-05T22:38:43.694Z,41.12
2023-05-05T22:41:14.357Z,41.14
2023-05-05T22:43:44.843Z,41.29
2023-05-05T22:46:15.319Z,41.31
2023-05-05T22:48:46.180Z,41.24
2023-05-05T22:51:16.692Z,41.39
2023-05-05T22:53:47.125Z,41.46
2023-05-05T22:56:17.979Z,41.37
2023-05-05T22:58:48.512Z,41.71
2023-05-05T23:01:19.050Z,41.54
2023-05-05T23:03:49.531Z,41.67
2023-05-05T23:06:20.104Z,41.70
2023-05-05T23:08:50.633Z,41.73
2023-05-05T23:11:21.177Z,41.88
2023-05-05T23:13:51.685Z,41.92
2023-05-05T23:16:22.165Z,41.88
2023-05-05T23:18:52.628Z,41.92
2023-05-05T23:21:23.173Z,42.10
2023-05-05T23:23:55.055Z,42.03
2023-05-05T23:26:25.940Z,42.01
2023-05-05T23:28:56.410Z,42.05
2023-05-05T23:31:26.954Z,42.23
2023-05-05T23:33:57.420Z,42.21
2023-05-05T23:36:27.934Z,42.25
2023-05-05T23:38:58.373Z,42.19
2023-05-05T23:41:28.821Z,42.27
2023-05-05T23:43:59.406Z,42.38
2023-05-05T23:46:29.931Z,42.35
2023-05-05T23:49:00.457Z,42.34
2023-05-05T23:51:31.022Z,42.40
2023-05-05T23:54:01.452Z,42.57
2023-05-05T23:56:31.964Z,42.62
2023-05-05T23:59:02.741Z,42.56
